»·PEaware :: N246SC KSBA-KBUR

N246SC :: KSBA-KBUR

FLIGHT INFORMATION

Flight Status: Arrived
Operator: Privately registered:
United States
More flights under this callsign
Pilot: Will Z. (31117)
Aircraft: DIAMOND DA-42 TWINSTAR
(DA42)
More flights by this aircraft type
Origin: KSBA Santa Barbara Mun
United States
Destination: KBUR Bob Hope-Burbank
United States
More flights between these airports :: More routes between these airports
Route: KWANG CMA CMA078 TOAKS
File this flight plan on PilotEdge
Remarks: TEC route SBAP1
Altitude:
(Current/Filed)
5,000ft
Speed:
(Current/Filed)
140kts
Departed: 10-Jan-21 06:30 PM
Arrived: 10-Jan-21 06:56 PM
Distance/Time
Traveled:
75nm/0:25
Distance/Time
To Go:
Arrived

Flight Plot

Page will automatically refresh every two minutes.


Map Options




Map Legend


Flown Route
Filed Route
Departure Airport
Arrival Airport
Navaid (VOR, NDB)
Fix

Horizontal Profiles

Position Reports

Time Latitude Longitude Heading Altitude Ground
Speed
10-Jan-21 18:05 34.424055 -119.835921 72 13ft 0kts
10-Jan-21 18:06 34.424055 -119.835920 72 13ft 0kts
10-Jan-21 18:07 34.424055 -119.835919 72 13ft 0kts
10-Jan-21 18:08 34.424056 -119.835917 72 13ft 0kts
10-Jan-21 18:09 34.424056 -119.835916 72 13ft 0kts
10-Jan-21 18:10 34.424056 -119.835915 72 13ft 0kts
10-Jan-21 18:11 34.424056 -119.835914 72 13ft 0kts
10-Jan-21 18:12 34.424057 -119.835913 72 13ft 0kts
10-Jan-21 18:13 34.424057 -119.835912 72 13ft 0kts
10-Jan-21 18:14 34.424057 -119.835911 72 13ft 0kts
10-Jan-21 18:15 34.423937 -119.835883 239 13ft 0kts
10-Jan-21 18:16 34.423936 -119.835884 239 13ft 0kts
10-Jan-21 18:17 34.423936 -119.835885 239 13ft 0kts
10-Jan-21 18:18 34.423936 -119.835885 239 13ft 0kts
10-Jan-21 18:19 34.423935 -119.835886 239 13ft 0kts
10-Jan-21 18:20 34.423935 -119.835886 239 13ft 0kts
10-Jan-21 18:21 34.423891 -119.835991 248 13ft 5kts
10-Jan-21 18:22 34.426720 -119.838064 50 13ft 9kts
10-Jan-21 18:23 34.427161 -119.835155 2 13ft 0kts
10-Jan-21 18:24 34.427162 -119.835155 2 13ft 0kts
10-Jan-21 18:25 34.427162 -119.835155 2 13ft 0kts
10-Jan-21 18:26 34.427163 -119.835155 2 13ft 0kts
10-Jan-21 18:27 34.427164 -119.835155 2 13ft 0kts
10-Jan-21 18:28 34.427908 -119.835834 267 13ft 4kts
10-Jan-21 18:29 34.427331 -119.859009 265 426ft 92kts
10-Jan-21 18:30 34.423086 -119.892950 260 1076ft 101kts
10-Jan-21 18:31 34.418658 -119.927050 261 1783ft 102kts
10-Jan-21 18:32 34.413254 -119.960898 261 2487ft 103kts
10-Jan-21 18:33 34.407727 -119.995175 261 3187ft 103kts
10-Jan-21 18:34 34.401064 -120.029283 249 3869ft 108kts
10-Jan-21 18:35 34.376831 -120.020874 116 4548ft 112kts
10-Jan-21 18:36 34.365024 -119.982534 100 5006ft 131kts
10-Jan-21 18:37 34.358227 -119.881845 95 5001ft 159kts
10-Jan-21 18:38 34.344116 -119.775384 95 5000ft 160kts
10-Jan-21 18:39 34.329899 -119.668309 95 5003ft 166kts
10-Jan-21 18:40 34.314868 -119.556033 95 5010ft 170kts
10-Jan-21 18:41 34.293317 -119.443446 102 5009ft 171kts
10-Jan-21 18:42 34.267893 -119.332280 103 5000ft 171kts
10-Jan-21 18:43 34.242041 -119.220084 103 4984ft 180kts
10-Jan-21 18:44 34.216037 -119.107580 103 4994ft 174kts
10-Jan-21 18:45 34.209965 -118.993707 90 5001ft 170kts
10-Jan-21 18:46 34.206398 -118.879938 90 5000ft 169kts
10-Jan-21 18:47 34.209542 -118.767733 59 5026ft 171kts
10-Jan-21 18:48 34.200645 -118.681851 89 4700ft 167kts
10-Jan-21 18:49 34.201110 -118.625672 89 4141ft 171kts
10-Jan-21 18:50 34.200576 -118.571208 90 3661ft 137kts
10-Jan-21 18:51 34.200045 -118.529104 91 3259ft 124kts
10-Jan-21 18:52 34.198518 -118.476492 87 2444ft 99kts
10-Jan-21 18:53 34.198289 -118.412030 91 1513ft 95kts
10-Jan-21 18:54 34.198006 -118.377743 91 944ft 99kts
10-Jan-21 18:55 34.196936 -118.360293 179 781ft 7kts
10-Jan-21 18:56 34.195864 -118.360156 346 781ft 0kts
10-Jan-21 18:57 34.195864 -118.360156 346 781ft 0kts

Navigation Log

Ident Type
Flight plan parsing failed, navigation log unavailable